Time;durP1;ratioP1;P1;durP2;ratioP2;P2;SDS_P1;SDS_P2;PMS_P1;PMS_P2;Temp;Humidity;BMP_temperature;BMP_pressure;BME280_temperature;BME280_humidity;BME280_pressure;Samples;Min_cycle;Max_cycle;Signal;HPM_P1;HPM_P2
2022/02/03 00:01:12;;;;;;;;;2.75;2.75;;;;;21.25;38.32;102019.00;5063481;28;51111;-49
2022/02/03 00:03:49;;;;;;;;;4.50;4.50;;;;;21.23;38.25;102012.84;5065391;28;51900;-48
2022/02/03 00:06:18;;;;;;;;;5.00;3.00;;;;;21.22;38.07;102002.03;5057825;28;51301;-45
2022/02/03 00:09:13;;;;;;;;;4.00;4.00;;;;;21.20;37.98;101998.63;5065567;28;52262;-46
2022/02/03 00:22:00;;;;;;;;;2.50;2.50;;;;;21.15;37.72;101990.09;5065700;28;51154;-49
2022/02/03 00:25:33;;;;;;;;;5.25;5.25;;;;;21.09;37.75;101979.91;5065183;28;51034;-46
2022/02/03 00:31:02;;;;;;;;;5.00;2.75;;;;;21.05;37.75;101987.72;5058588;28;50929;-46
2022/02/03 00:33:38;;;;;;;;;3.00;1.50;;;;;21.04;37.85;101980.47;5065251;28;51341;-49
2022/02/03 00:49:33;;;;;;;;;3.25;2.50;;;;;20.94;37.68;101968.94;5065248;28;50835;-45
2022/02/03 00:52:00;;;;;;;;;3.25;3.25;;;;;20.94;37.63;101974.44;5068471;28;51166;-46
2022/02/03 00:54:26;;;;;;;;;2.75;2.75;;;;;20.92;37.62;101968.28;5059577;28;51036;-45
2022/02/03 00:57:03;;;;;;;;;4.00;2.00;;;;;20.91;37.75;101966.59;5067883;28;51704;-49
2022/02/03 00:59:29;;;;;;;;;1.00;1.00;;;;;20.90;37.71;101964.88;5066163;28;51241;-48
2022/02/03 01:01:58;;;;;;;;;1.75;1.25;;;;;20.90;37.70;101960.22;5067918;28;51128;-48
2022/02/03 01:04:28;;;;;;;;;3.00;3.00;;;;;20.88;37.55;101958.72;5066236;27;51292;-46
2022/02/03 01:06:57;;;;;;;;;2.75;1.75;;;;;20.87;37.60;101959.78;5059415;28;52979;-45
2022/02/03 01:09:26;;;;;;;;;3.00;1.25;;;;;20.86;37.57;101966.34;5066928;28;51443;-46
2022/02/03 01:12:02;;;;;;;;;4.75;3.50;;;;;20.85;37.93;101967.41;5067558;28;51015;-45
2022/02/03 01:14:58;;;;;;;;;1.75;1.00;;;;;20.84;37.95;101968.41;5065116;28;50902;-45
2022/02/03 01:17:33;;;;;;;;;1.75;1.75;;;;;20.83;37.86;101972.22;5062936;27;52336;-47
2022/02/03 01:44:43;;;;;;;;;2.50;2.50;;;;;20.70;38.02;101956.44;5053074;28;50984;-50
2022/02/03 01:47:25;;;;;;;;;1.50;1.50;;;;;20.69;37.41;101961.09;5061271;28;50849;-49
2022/02/03 01:52:30;;;;;;;;;2.00;2.00;;;;;20.67;37.64;101954.09;5068468;28;51017;-48
2022/02/03 01:54:58;;;;;;;;;1.00;1.00;;;;;20.67;37.36;101948.59;5068081;27;51150;-48
2022/02/03 01:57:34;;;;;;;;;2.00;2.00;;;;;20.66;37.67;101952.38;5065339;28;51108;-46
2022/02/03 02:00:06;;;;;;;;;0.75;0.75;;;;;20.64;37.86;101952.59;5064031;28;52530;-46
2022/02/03 02:02:33;;;;;;;;;1.75;0.75;;;;;20.63;37.55;101950.84;5067070;28;51637;-45
2022/02/03 02:05:37;;;;;;;;;1.00;1.00;;;;;20.63;37.88;101950.84;5064879;28;50983;-47
2022/02/03 02:08:18;;;;;;;;;3.00;2.00;;;;;20.62;37.96;101951.91;5021875;28;51168;-46
2022/02/03 02:11:28;;;;;;;;;1.00;1.00;;;;;20.60;37.47;101939.41;5024032;28;51812;-45
2022/02/03 02:19:50;;;;;;;;;1.75;1.75;;;;;20.56;37.88;101933.44;5058410;27;51092;-50
2022/02/03 02:39:11;;;;;;;;;1.00;1.00;;;;;20.50;37.57;101889.31;5066818;28;50955;-46
2022/02/03 02:44:25;;;;;;;;;0.00;0.00;;;;;20.49;37.56;101871.13;5062990;28;51787;-47
2022/02/03 02:46:53;;;;;;;;;0.50;0.50;;;;;20.46;37.52;101864.97;5071558;28;51103;-47
2022/02/03 02:49:50;;;;;;;;;1.00;1.00;;;;;20.46;37.65;101850.34;5079954;27;51053;-45
2022/02/03 02:52:27;;;;;;;;;0.75;0.75;;;;;20.46;37.75;101831.09;5056550;28;51247;-47
2022/02/03 02:55:30;;;;;;;;;2.00;1.00;;;;;20.44;37.69;101823.03;5062610;27;52245;-47
2022/02/03 02:58:22;;;;;;;;;1.00;1.00;;;;;20.44;37.81;101802.91;5060176;28;51518;-49
2022/02/03 03:04:25;;;;;;;;;2.75;1.75;;;;;20.42;37.54;101800.34;5067561;28;51099;-50
2022/02/03 03:32:42;;;;;;;;;2.00;2.00;;;;;20.34;37.98;101742.69;5066990;28;50922;-45
2022/02/03 03:37:49;;;;;;;;;1.00;1.00;;;;;20.33;37.58;101737.38;5065433;28;51293;-47
2022/02/03 03:40:17;;;;;;;;;1.00;1.00;;;;;20.31;37.46;101737.56;5081759;27;53833;-46
2022/02/03 03:42:57;;;;;;;;;0.75;0.75;;;;;20.32;37.63;101735.66;5066209;28;51423;-45
2022/02/03 03:45:24;;;;;;;;;2.75;0.50;;;;;20.31;37.48;101732.06;5066215;27;51267;-46
2022/02/03 03:47:54;;;;;;;;;1.00;1.00;;;;;20.31;37.89;101731.22;5068023;28;51206;-45
2022/02/03 03:50:25;;;;;;;;;1.25;1.00;;;;;20.31;37.40;101731.22;5069193;28;52948;-45
2022/02/03 03:53:02;;;;;;;;;1.00;1.00;;;;;20.30;37.35;101721.25;5066348;28;51260;-48
2022/02/03 03:56:00;;;;;;;;;2.00;1.00;;;;;20.30;37.93;101718.50;5066089;27;51058;-47
2022/02/03 03:59:04;;;;;;;;;0.75;0.75;;;;;20.29;37.49;101716.81;5062628;28;51034;-45
2022/02/03 04:57:41;;;;;;;;;0.50;0.50;;;;;20.15;37.66;101660.84;5060780;28;50912;-45
2022/02/03 05:03:25;;;;;;;;;0.25;0.00;;;;;20.14;37.75;101638.00;5066785;28;51187;-48
2022/02/03 05:06:38;;;;;;;;;0.00;0.00;;;;;20.13;37.69;101630.78;5055334;28;50927;-47
2022/02/03 05:09:39;;;;;;;;;2.50;0.50;;;;;20.12;37.76;101634.59;5060301;28;50935;-45
2022/02/03 05:12:34;;;;;;;;;0.00;0.00;;;;;20.11;37.99;101627.41;5061990;28;51818;-48
2022/02/03 05:18:30;;;;;;;;;1.75;1.75;;;;;20.10;37.36;101633.06;5051611;28;50977;-46
2022/02/03 05:44:47;;;;;;;;;1.00;0.00;;;;;20.05;37.63;101617.19;5060617;28;51144;-47
2022/02/03 05:55:23;;;;;;;;;0.50;0.50;;;;;20.02;37.26;101614.00;5067312;28;51216;-45
2022/02/03 06:29:16;;;;;;;;;6.25;4.75;;;;;19.78;35.39;101574.88;5064845;28;51066;-44
2022/02/03 06:31:45;;;;;;;;;5.00;5.00;;;;;19.75;35.37;101568.94;5087178;27;51139;-44
2022/02/03 06:34:11;;;;;;;;;6.00;5.25;;;;;19.70;35.49;101558.56;5060807;27;52232;-44
2022/02/03 06:36:40;;;;;;;;;5.00;5.00;;;;;19.65;35.55;101547.31;5061623;28;51095;-44
2022/02/03 06:39:16;;;;;;;;;5.50;4.50;;;;;19.64;35.18;101531.88;5058632;28;50974;-46
2022/02/03 06:41:42;;;;;;;;;4.50;3.50;;;;;19.67;35.61;101531.47;5059772;28;52105;-46
2022/02/03 06:44:08;;;;;;;;;3.50;3.50;;;;;19.71;36.32;101543.78;5058863;28;51040;-48
2022/02/03 06:46:35;;;;;;;;;3.25;3.00;;;;;19.76;36.40;101533.00;5057650;28;51110;-46
2022/02/03 06:49:13;;;;;;;;;2.25;2.25;;;;;19.83;36.54;101533.06;5066789;28;52023;-49
2022/02/03 06:51:47;;;;;;;;;3.25;3.25;;;;;19.92;37.10;101533.75;5058959;28;50847;-47
2022/02/03 06:54:20;;;;;;;;;2.75;2.75;;;;;19.99;37.28;101529.13;5066561;28;51249;-46
2022/02/03 06:56:55;;;;;;;;;2.00;2.00;;;;;20.05;37.30;101537.44;5057158;28;50933;-48
2022/02/03 06:59:27;;;;;;;;;2.00;2.00;;;;;20.14;37.49;101538.97;5063514;28;52590;-46
2022/02/03 07:01:53;;;;;;;;;3.25;3.00;;;;;20.23;37.75;101541.56;5056183;28;51154;-47
2022/02/03 07:04:23;;;;;;;;;4.00;2.00;;;;;20.28;37.62;101539.88;5066056;28;51029;-49
2022/02/03 07:06:49;;;;;;;;;4.00;2.50;;;;;20.36;37.66;101547.09;5060536;28;50933;-45
2022/02/03 07:09:14;;;;;;;;;3.75;3.75;;;;;20.43;37.91;101548.03;5063741;28;51856;-46
2022/02/03 07:11:41;;;;;;;;;2.75;2.75;;;;;20.52;38.11;101562.44;5063142;28;51196;-47
2022/02/03 07:14:09;;;;;;;;;4.50;2.25;;;;;20.59;38.31;101547.66;5063910;27;51080;-48
2022/02/03 07:16:42;;;;;;;;;5.50;4.00;;;;;20.65;38.24;101537.75;5061278;28;51112;-45
2022/02/03 07:19:07;;;;;;;;;2.50;2.50;;;;;20.72;37.96;101542.19;5066253;27;52926;-46
2022/02/03 07:21:33;;;;;;;;;3.25;3.25;;;;;20.79;38.28;101549.63;5066282;28;51340;-45
2022/02/03 07:23:58;;;;;;;;;4.75;4.75;;;;;20.82;38.48;101561.06;5063969;28;51054;-47
2022/02/03 07:26:24;;;;;;;;;3.75;2.75;;;;;20.82;37.89;101561.06;5059038;28;51550;-44
2022/02/03 07:28:49;;;;;;;;;4.00;2.75;;;;;20.78;38.47;101548.78;5067063;28;51809;-45
2022/02/03 07:31:14;;;;;;;;;7.75;4.50;;;;;20.75;38.28;101558.31;5062785;27;51266;-45
2022/02/03 07:33:40;;;;;;;;;4.25;4.25;;;;;20.72;38.11;101568.88;5055254;28;51190;-46
2022/02/03 07:36:06;;;;;;;;;5.75;3.75;;;;;20.68;38.48;101562.94;5055271;28;51081;-46
2022/02/03 07:38:31;;;;;;;;;5.00;4.00;;;;;20.65;38.34;101552.34;5063664;28;51778;-44
2022/02/03 07:40:56;;;;;;;;;3.00;3.00;;;;;20.64;38.52;101555.31;5055293;28;51195;-45
2022/02/03 07:43:22;;;;;;;;;5.25;4.00;;;;;20.62;38.52;101563.75;5054922;28;51062;-43
2022/02/03 07:45:48;;;;;;;;;4.00;4.00;;;;;20.62;38.51;101561.00;5052428;28;50872;-46
2022/02/03 07:48:13;;;;;;;;;7.50;4.75;;;;;20.67;38.34;101561.25;5067409;28;51902;-44
2022/02/03 07:50:39;;;;;;;;;5.00;4.50;;;;;20.72;38.62;101536.69;5066108;28;51101;-45
2022/02/03 07:53:04;;;;;;;;;4.25;4.25;;;;;20.77;38.85;101549.84;5052925;28;51204;-47
2022/02/03 07:55:29;;;;;;;;;5.50;4.50;;;;;20.79;38.62;101552.38;5054906;28;51181;-46
2022/02/03 07:57:55;;;;;;;;;3.00;3.00;;;;;20.77;38.78;101551.75;5069531;27;52831;-45
2022/02/03 08:00:23;;;;;;;;;2.75;2.75;;;;;20.73;39.28;101559.56;5061551;28;51154;-48
2022/02/03 08:02:48;;;;;;;;;4.25;4.00;;;;;20.69;38.85;101542.63;5067102;28;51037;-48
2022/02/03 08:05:17;;;;;;;;;7.25;4.50;;;;;20.64;39.06;101542.41;5060262;28;51267;-47
2022/02/03 08:07:51;;;;;;;;;5.00;4.25;;;;;20.59;39.51;101538.56;5067714;28;52923;-48
2022/02/03 08:10:32;;;;;;;;;5.00;5.00;;;;;20.53;39.30;101539.38;5063698;28;51014;-48
2022/02/03 08:13:01;;;;;;;;;5.75;4.50;;;;;20.51;39.69;101552.50;5057622;28;51063;-48
2022/02/03 08:15:28;;;;;;;;;3.50;3.50;;;;;20.46;39.52;101544.84;5069093;27;51216;-45
2022/02/03 08:18:00;;;;;;;;;4.75;4.25;;;;;20.42;39.57;101549.03;5059058;28;51466;-62
2022/02/03 08:20:25;;;;;;;;;4.00;4.00;;;;;20.39;39.52;101549.44;5067524;28;51318;-44
2022/02/03 08:22:59;;;;;;;;;2.00;1.00;;;;;20.37;39.59;101562.56;5059906;28;51140;-45
2022/02/03 08:25:28;;;;;;;;;5.00;3.75;;;;;20.33;39.89;101550.28;5059110;28;51239;-43
2022/02/03 08:30:45;;;;;;;;;4.25;3.00;;;;;20.27;40.00;101564.84;5069620;28;51385;-44
2022/02/03 08:33:16;;;;;;;;;5.00;4.25;;;;;20.24;39.88;101559.75;5067607;28;51071;-43
2022/02/03 08:35:46;;;;;;;;;8.00;5.75;;;;;20.22;39.83;101561.84;5054762;28;51186;-44
2022/02/03 08:38:17;;;;;;;;;3.50;2.75;;;;;20.18;40.16;101548.50;5066939;28;52227;-43
2022/02/03 08:43:14;;;;;;;;;3.25;3.25;;;;;20.13;40.32;101552.94;5064437;28;51038;-43
2022/02/03 08:45:40;;;;;;;;;4.00;3.00;;;;;20.10;40.54;101545.06;5060518;28;51123;-51
2022/02/03 08:48:06;;;;;;;;;4.25;4.25;;;;;20.07;40.56;101529.81;5087508;27;51120;-47
2022/02/03 08:50:33;;;;;;;;;3.00;3.00;;;;;20.05;40.63;101531.94;5062901;28;51098;-45
2022/02/03 08:53:08;;;;;;;;;6.00;4.00;;;;;20.03;40.71;101535.94;5064251;28;51326;-44
2022/02/03 08:55:55;;;;;;;;;3.50;3.50;;;;;20.01;40.54;101522.41;5055904;28;51333;-45
2022/02/03 09:37:20;;;;;;;;;5.00;4.00;;;;;19.79;41.22;101518.00;5066769;28;51119;-45
2022/02/03 09:59:13;;;;;;;;;4.75;4.75;;;;;19.73;41.06;101477.59;5057693;28;50980;-44
2022/02/03 10:02:08;;;;;;;;;3.50;3.50;;;;;19.75;41.11;101476.34;5064910;28;51126;-45
2022/02/03 10:04:45;;;;;;;;;4.00;3.00;;;;;19.76;41.24;101471.69;5055302;28;52670;-43
2022/02/03 10:07:21;;;;;;;;;3.50;3.50;;;;;19.78;41.15;101470.41;5057775;28;50991;-48
2022/02/03 10:09:58;;;;;;;;;2.00;2.00;;;;;19.79;41.37;101474.00;5054887;28;51131;-47
2022/02/03 10:12:35;;;;;;;;;5.25;4.00;;;;;19.80;41.22;101465.59;5055596;28;51323;-50
2022/02/03 10:15:02;;;;;;;;;2.75;2.75;;;;;19.81;40.92;101478.28;5051240;28;53451;-46
2022/02/03 10:17:37;;;;;;;;;5.00;3.75;;;;;19.85;40.94;101476.81;5054869;28;51340;-45
2022/02/03 10:20:07;;;;;;;;;3.50;2.50;;;;;19.96;41.02;101485.53;5046191;28;51169;-49
2022/02/03 10:22:42;;;;;;;;;3.00;3.00;;;;;20.06;41.00;101491.53;5053864;28;51119;-45
2022/02/03 10:25:11;;;;;;;;;2.75;2.25;;;;;20.19;40.81;101483.31;5050884;28;51702;-46
2022/02/03 10:27:39;;;;;;;;;3.75;3.75;;;;;20.31;40.42;101478.06;5051836;28;51030;-48
2022/02/03 10:30:06;;;;;;;;;4.00;3.50;;;;;20.42;40.76;101480.22;5054632;28;50905;-47
2022/02/03 10:32:46;;;;;;;;;6.00;4.75;;;;;20.55;40.42;101479.47;5050073;28;51261;-46
2022/02/03 10:35:19;;;;;;;;;4.00;4.00;;;;;20.66;40.35;101476.97;5051819;28;53756;-50
2022/02/03 10:37:49;;;;;;;;;3.25;3.25;;;;;20.77;40.20;101480.16;5055933;28;51360;-47
2022/02/03 10:40:46;;;;;;;;;4.00;2.00;;;;;20.86;40.16;101482.50;5053265;28;51148;-46
2022/02/03 11:08:16;;;;;;;;;3.00;3.00;;;;;21.25;40.00;101461.53;5009323;28;52269;-46
2022/02/03 11:10:45;;;;;;;;;4.00;3.75;;;;;21.26;39.79;101444.84;5035072;28;51116;-45
2022/02/03 11:13:14;;;;;;;;;3.00;3.00;;;;;21.26;39.65;101441.25;5052818;28;51308;-49
2022/02/03 11:15:41;;;;;;;;;2.75;2.75;;;;;21.25;39.63;101437.56;5053049;28;51294;-45
2022/02/03 11:18:08;;;;;;;;;4.00;4.00;;;;;21.22;39.80;101437.16;5053818;28;51862;-46
2022/02/03 11:20:38;;;;;;;;;3.00;3.00;;;;;21.20;40.24;101431.03;5056041;28;51114;-47
2022/02/03 11:36:16;;;;;;;;;3.75;3.75;;;;;21.36;39.38;101432.50;5055945;28;51091;-48
2022/02/03 11:53:28;;;;;;;;;5.00;4.50;;;;;21.42;39.28;101410.47;5026395;28;50957;-45
2022/02/03 12:00:54;;;;;;;;;4.25;4.25;;;;;21.47;38.95;101407.09;5056632;28;51456;-46
2022/02/03 12:03:48;;;;;;;;;3.50;3.50;;;;;21.44;39.33;101399.22;5058700;28;50989;-46
2022/02/03 12:15:49;;;;;;;;;8.25;6.75;;;;;21.32;39.71;101372.31;5052799;28;51282;-48
2022/02/03 12:20:54;;;;;;;;;7.25;5.75;;;;;21.37;39.26;101373.59;5055050;28;51118;-49
2022/02/03 12:24:00;;;;;;;;;10.75;7.25;;;;;21.47;39.39;101369.34;5055885;28;51030;-45
2022/02/03 12:26:37;;;;;;;;;8.25;5.00;;;;;21.56;38.90;101372.69;5055640;28;51425;-47
2022/02/03 12:29:17;;;;;;;;;6.75;6.50;;;;;21.60;39.39;101371.19;5062621;28;51267;-47
2022/02/03 12:32:08;;;;;;;;;9.50;6.50;;;;;21.59;38.87;101356.56;5063153;28;52264;-47
2022/02/03 12:40:03;;;;;;;;;5.75;5.50;;;;;21.50;38.79;101349.59;5056219;28;51095;-45
2022/02/03 12:42:48;;;;;;;;;6.75;6.00;;;;;21.47;39.23;101355.56;5051866;28;51336;-46
2022/02/03 12:45:24;;;;;;;;;5.00;5.00;;;;;21.47;38.75;101351.97;5057580;28;52993;-45
2022/02/03 12:47:51;;;;;;;;;5.00;5.00;;;;;21.49;38.62;101353.44;5055160;28;51601;-47
2022/02/03 12:50:21;;;;;;;;;5.25;5.25;;;;;21.56;38.78;101357.00;5058523;28;51066;-45
2022/02/03 12:52:46;;;;;;;;;7.00;5.75;;;;;21.60;38.56;101347.25;5056964;28;51118;-43
2022/02/03 12:55:44;;;;;;;;;6.50;5.75;;;;;21.62;38.26;101352.53;5054728;28;51476;-45
2022/02/03 12:58:16;;;;;;;;;7.50;5.75;;;;;21.61;38.46;101345.31;5039755;28;51106;-45
2022/02/03 13:01:00;;;;;;;;;4.25;4.25;;;;;21.59;38.57;101344.69;5066580;28;50946;-44
2022/02/03 13:03:38;;;;;;;;;4.25;4.00;;;;;21.57;38.05;101341.28;5060957;28;51412;-45
2022/02/03 13:06:08;;;;;;;;;5.75;4.00;;;;;21.55;38.32;101329.66;5056489;28;53859;-43
2022/02/03 13:08:47;;;;;;;;;7.00;6.00;;;;;21.51;38.17;101340.28;5065808;28;51381;-47
2022/02/03 13:11:22;;;;;;;;;6.25;5.25;;;;;21.52;38.01;101338.34;5080116;27;51272;-44
2022/02/03 13:14:35;;;;;;;;;6.25;4.25;;;;;21.57;38.25;101341.28;5063657;28;51089;-44
2022/02/03 13:17:15;;;;;;;;;5.75;4.75;;;;;21.66;37.76;101337.22;5063376;28;52006;-50
2022/02/03 13:22:18;;;;;;;;;4.50;4.50;;;;;21.73;37.84;101342.72;5063930;28;51202;-46
2022/02/03 13:27:33;;;;;;;;;4.25;4.25;;;;;21.70;37.42;101340.41;5070820;28;51691;-44
2022/02/03 13:30:05;;;;;;;;;5.00;3.75;;;;;21.67;37.34;101332.56;5057750;28;51705;-44
2022/02/03 13:32:37;;;;;;;;;5.75;5.75;;;;;21.64;37.55;101325.56;5067238;28;51008;-46
2022/02/03 13:35:20;;;;;;;;;6.50;5.75;;;;;21.63;37.40;101328.56;5066548;27;51005;-47
2022/02/03 13:37:56;;;;;;;;;4.75;4.50;;;;;21.60;37.94;101329.84;5053874;28;51892;-48
2022/02/03 13:40:25;;;;;;;;;4.00;4.00;;;;;21.64;38.02;101330.25;5060632;28;51459;-44
2022/02/03 13:43:02;;;;;;;;;4.75;4.75;;;;;21.71;37.80;101326.41;5068017;28;51244;-44
2022/02/03 13:45:28;;;;;;;;;6.50;5.50;;;;;21.77;37.19;101320.00;5049223;28;51174;-44
2022/02/03 13:47:53;;;;;;;;;5.00;4.25;;;;;21.82;37.55;101311.94;5054133;28;51625;-46
2022/02/03 13:50:24;;;;;;;;;8.50;7.75;;;;;21.84;37.44;101317.22;5055015;28;51349;-44
2022/02/03 14:22:12;;;;;;;;;5.25;5.25;;;;;21.87;36.85;101289.19;5037500;28;51404;-43
2022/02/03 14:27:38;;;;;;;;;7.00;5.25;;;;;21.83;36.82;101280.53;5032590;28;51143;-45
2022/02/03 14:30:14;;;;;;;;;6.00;6.00;;;;;21.81;36.68;101287.34;5047676;28;51559;-44
2022/02/03 14:32:41;;;;;;;;;8.50;7.25;;;;;21.79;36.62;101289.47;5050754;28;51331;-42
2022/02/03 14:35:09;;;;;;;;;7.00;4.25;;;;;21.80;36.42;101292.00;5054534;28;51441;-46
2022/02/03 14:42:39;;;;;;;;;8.00;4.75;;;;;21.77;36.96;101280.53;5055702;28;51172;-43
2022/02/03 14:45:06;;;;;;;;;5.00;4.75;;;;;21.79;36.38;101279.28;5052646;28;51109;-42
2022/02/03 14:47:33;;;;;;;;;8.25;8.25;;;;;21.83;36.88;101274.16;5054119;28;51417;-42
2022/02/03 14:50:01;;;;;;;;;8.25;6.00;;;;;21.88;36.53;101272.44;5052686;28;52595;-42
2022/02/03 14:52:33;;;;;;;;;5.50;5.50;;;;;21.92;36.17;101266.47;5054700;27;51315;-43
2022/02/03 15:00:28;;;;;;;;;7.75;7.00;;;;;21.89;36.72;101265.03;5051362;28;51206;-45
2022/02/03 15:02:55;;;;;;;;;4.75;4.75;;;;;21.88;36.78;101263.28;5053638;28;51434;-44
2022/02/03 15:05:27;;;;;;;;;6.00;6.00;;;;;21.87;36.71;101265.22;5050974;28;52132;-46
2022/02/03 15:07:59;;;;;;;;;6.00;6.00;;;;;21.88;36.40;101263.28;5054153;28;51371;-42
2022/02/03 15:13:34;;;;;;;;;6.75;5.25;;;;;22.03;36.67;101265.78;5050842;28;51086;-43
2022/02/03 15:15:49;;;;;;;;;5.00;4.50;;;;;22.04;36.43;101275.72;5051450;27;51146;-42
2022/02/03 15:18:17;;;;;;;;;2.00;2.00;;;;;22.04;35.93;101259.19;5052656;28;51229;-45
2022/02/03 15:20:43;;;;;;;;;5.00;4.00;;;;;22.01;35.84;101257.72;5052088;28;51778;-46
2022/02/03 15:23:08;;;;;;;;;9.75;6.00;;;;;22.00;35.83;101263.47;5067644;27;51110;-44
2022/02/03 15:25:34;;;;;;;;;4.00;3.75;;;;;21.97;36.42;101261.97;5054295;28;51131;-45
2022/02/03 15:27:59;;;;;;;;;7.25;7.25;;;;;21.94;36.47;101264.34;5056565;28;51168;-47
2022/02/03 15:30:26;;;;;;;;;5.00;5.00;;;;;21.92;35.93;101274.75;5054517;28;51772;-45
2022/02/03 15:32:52;;;;;;;;;5.75;4.50;;;;;21.88;36.37;101260.53;5054651;28;51111;-45
2022/02/03 15:35:25;;;;;;;;;5.50;4.75;;;;;21.86;35.95;101262.69;5055345;28;51135;-45
2022/02/03 15:37:52;;;;;;;;;6.25;6.00;;;;;21.89;36.28;101265.84;5054966;28;51102;-44
2022/02/03 15:40:21;;;;;;;;;4.00;2.25;;;;;21.95;35.80;101261.34;5054969;28;52361;-44
2022/02/03 15:42:55;;;;;;;;;6.00;5.00;;;;;21.99;36.06;101264.50;5055179;28;51174;-45
2022/02/03 15:45:21;;;;;;;;;6.00;5.00;;;;;21.96;35.66;101259.44;5054100;28;51182;-46
2022/02/03 15:47:52;;;;;;;;;5.75;5.75;;;;;21.94;36.15;101258.81;5055379;28;51196;-47
2022/02/03 16:17:10;;;;;;;;;5.50;5.00;;;;;21.44;35.88;101253.16;5055122;28;51284;-45
2022/02/03 16:20:03;;;;;;;;;7.00;5.00;;;;;21.42;35.88;101245.09;5054202;28;51005;-44
2022/02/03 16:41:26;;;;;;;;;7.00;5.00;;;;;21.17;35.96;101258.75;5055393;28;51076;-46
2022/02/03 16:52:36;;;;;;;;;4.00;3.50;;;;;21.06;36.29;101264.94;5055974;28;51274;-47
2022/02/03 16:55:07;;;;;;;;;5.00;4.00;;;;;21.03;36.29;101268.94;5070382;27;53323;-45
2022/02/03 16:57:32;;;;;;;;;7.00;5.00;;;;;21.01;36.13;101267.47;5052372;28;51378;-47
2022/02/03 17:00:04;;;;;;;;;4.50;4.00;;;;;20.99;36.20;101266.84;5068170;27;50996;-47
2022/02/03 17:02:29;;;;;;;;;6.50;3.50;;;;;20.96;36.19;101264.53;5049046;28;51223;-46
2022/02/03 17:04:56;;;;;;;;;5.50;5.00;;;;;20.94;36.12;101263.88;5054877;28;50947;-46
2022/02/03 17:07:23;;;;;;;;;3.75;2.75;;;;;20.92;36.27;101266.84;5055434;28;51599;-47
2022/02/03 17:09:49;;;;;;;;;3.00;3.00;;;;;20.90;36.24;101257.97;5055199;28;51110;-46
2022/02/03 17:12:18;;;;;;;;;5.75;4.75;;;;;20.90;36.46;101268.13;5050151;28;51335;-47
2022/02/03 17:14:44;;;;;;;;;4.50;4.50;;;;;20.88;36.09;101262.00;5050670;28;52000;-46
2022/02/03 17:17:11;;;;;;;;;10.00;7.00;;;;;20.86;36.41;101264.13;5053259;28;51444;-46
2022/02/03 17:19:37;;;;;;;;;6.00;6.00;;;;;20.84;36.08;101260.72;5049526;28;51383;-46
2022/02/03 17:22:04;;;;;;;;;6.75;5.00;;;;;20.86;36.44;101262.22;5049392;28;51106;-43
2022/02/03 17:24:29;;;;;;;;;7.00;7.00;;;;;20.93;36.43;101276.78;5053228;28;52317;-47
2022/02/03 17:27:08;;;;;;;;;6.00;6.00;;;;;21.02;36.23;101282.94;5060552;28;51360;-44
2022/02/03 18:25:56;;;;;;;;;4.25;4.25;;;;;21.76;37.13;101287.13;5058201;28;51186;-44
2022/02/03 18:36:31;;;;;;;;;5.00;5.00;;;;;21.71;36.70;101287.81;5060678;28;51061;-46
2022/02/03 18:49:01;;;;;;;;;4.25;4.00;;;;;21.80;37.20;101292.00;5055882;28;51135;-45
2022/02/03 19:28:54;;;;;;;;;6.50;5.00;;;;;21.76;37.14;101287.13;5066674;27;51328;-48
2022/02/03 20:08:55;;;;;;;;;9.00;5.00;;;;;21.92;36.98;101311.44;5051143;28;51204;-45
2022/02/03 20:11:23;;;;;;;;;5.25;5.25;;;;;21.90;36.44;101314.44;5048931;28;52269;-44
2022/02/03 20:13:50;;;;;;;;;6.75;5.50;;;;;21.89;36.94;101306.38;5048341;28;51854;-43
2022/02/03 20:16:18;;;;;;;;;5.00;5.00;;;;;21.87;36.33;101309.34;5032136;28;51193;-43
2022/02/03 20:18:44;;;;;;;;;4.25;2.75;;;;;21.85;36.59;101305.97;5025806;28;53106;-46
2022/02/03 20:21:10;;;;;;;;;8.00;6.00;;;;;21.83;36.54;101310.84;5043211;28;51184;-43
2022/02/03 20:23:42;;;;;;;;;4.25;4.25;;;;;21.81;36.90;101317.66;5040296;28;51397;-42
2022/02/03 20:26:09;;;;;;;;;4.25;4.25;;;;;21.80;37.07;101316.81;5071361;27;51404;-45
2022/02/03 20:28:35;;;;;;;;;5.75;5.25;;;;;21.82;36.38;101311.09;5043402;28;51866;-43
2022/02/03 20:31:01;;;;;;;;;4.75;4.75;;;;;21.88;36.42;101308.31;5043911;28;51122;-43
2022/02/03 20:33:26;;;;;;;;;7.50;5.75;;;;;21.94;36.54;101316.75;5045133;28;51929;-45
2022/02/03 20:35:52;;;;;;;;;8.00;5.00;;;;;21.96;36.91;101309.94;5045972;28;51411;-45
2022/02/03 20:38:18;;;;;;;;;5.25;5.00;;;;;21.96;36.81;101311.84;5043431;28;51376;-43
2022/02/03 20:40:45;;;;;;;;;6.00;6.00;;;;;21.94;36.71;101312.06;5044628;28;51380;-43
2022/02/03 20:43:11;;;;;;;;;5.50;5.00;;;;;21.90;36.99;101306.16;5046999;28;51231;-44
2022/02/03 20:45:40;;;;;;;;;5.00;4.25;;;;;21.90;36.89;101308.91;5044345;28;51224;-43
2022/02/03 20:48:06;;;;;;;;;5.00;5.00;;;;;21.88;36.86;101316.56;5050991;28;51461;-43
2022/02/03 20:50:32;;;;;;;;;8.00;6.00;;;;;21.86;36.35;101309.56;5047787;28;51369;-42
2022/02/03 20:52:57;;;;;;;;;7.00;6.00;;;;;21.84;36.63;101314.47;5052334;28;51054;-46
2022/02/03 20:55:22;;;;;;;;;5.25;5.25;;;;;21.82;36.73;101320.19;5052308;28;51392;-46
2022/02/03 20:57:48;;;;;;;;;5.00;5.00;;;;;21.83;36.79;101310.84;5049620;28;51171;-46
2022/02/03 21:00:26;;;;;;;;;8.50;6.25;;;;;21.90;36.72;101317.19;5061841;28;51257;-46
2022/02/03 21:03:00;;;;;;;;;3.25;3.00;;;;;21.95;36.64;101315.69;5061440;28;53155;-45
2022/02/03 21:05:26;;;;;;;;;6.25;6.25;;;;;21.97;36.01;101310.78;5063006;28;51113;-45
2022/02/03 21:07:52;;;;;;;;;6.25;5.75;;;;;21.97;36.32;101313.53;5063834;28;51232;-43
2022/02/03 21:10:22;;;;;;;;;8.00;5.75;;;;;21.94;35.99;101317.59;5065085;28;51068;-45
2022/02/03 21:12:48;;;;;;;;;6.00;6.00;;;;;21.91;36.30;101315.28;5065156;28;51567;-43
2022/02/03 21:15:22;;;;;;;;;7.00;6.00;;;;;21.89;36.23;101322.94;5049730;28;51190;-53
2022/02/03 21:17:47;;;;;;;;;7.50;7.50;;;;;21.87;36.41;101311.25;5077208;27;51276;-42
2022/02/03 21:20:16;;;;;;;;;5.25;5.25;;;;;21.82;36.28;101311.94;5062602;28;51060;-45
2022/02/03 21:22:42;;;;;;;;;5.00;5.00;;;;;21.81;35.95;101323.19;5064279;28;51004;-44
2022/02/03 21:27:50;;;;;;;;;7.00;5.00;;;;;21.81;36.57;101314.91;5050796;28;52548;-43
2022/02/03 21:30:17;;;;;;;;;6.00;5.50;;;;;21.88;36.04;101318.47;5051458;28;51373;-42
2022/02/03 21:32:43;;;;;;;;;6.25;5.25;;;;;21.91;36.33;101320.78;5048613;28;51565;-45
2022/02/03 21:35:10;;;;;;;;;6.75;6.00;;;;;21.93;36.08;101321.41;5051537;28;51238;-45
2022/02/03 21:37:38;;;;;;;;;5.75;5.75;;;;;21.93;36.53;101315.06;5053145;28;51057;-44
2022/02/03 21:40:06;;;;;;;;;7.75;6.00;;;;;21.92;36.17;101329.91;5051014;28;51142;-44
2022/02/03 21:42:31;;;;;;;;;5.50;4.00;;;;;21.88;36.22;101322.09;5052205;28;51082;-45
2022/02/03 21:44:57;;;;;;;;;6.25;5.75;;;;;21.87;36.15;101325.88;5055822;28;51063;-45
2022/02/03 21:47:22;;;;;;;;;6.00;5.00;;;;;21.84;36.64;101319.97;5054836;28;51221;-44
2022/02/03 21:49:47;;;;;;;;;6.50;6.25;;;;;21.83;36.48;101326.56;5056535;28;52226;-44
2022/02/03 21:52:19;;;;;;;;;7.00;7.00;;;;;21.82;36.22;101327.63;5051395;28;51737;-43
2022/02/03 21:54:45;;;;;;;;;4.00;4.00;;;;;21.80;36.29;101330.63;5057211;28;51615;-45
2022/02/03 21:57:11;;;;;;;;;7.00;6.50;;;;;21.86;36.04;101331.63;5063724;28;51379;-46
2022/02/03 21:59:37;;;;;;;;;6.25;5.00;;;;;21.92;36.07;101329.91;5057840;28;51191;-50
2022/02/03 22:02:06;;;;;;;;;5.25;5.25;;;;;21.92;36.53;101333.53;5049908;28;51461;-46
2022/02/03 22:04:31;;;;;;;;;4.00;4.00;;;;;21.94;36.20;101325.03;5058438;27;51758;-49
2022/02/03 22:06:57;;;;;;;;;5.75;4.50;;;;;21.92;36.60;101332.69;5053026;28;50967;-46
2022/02/03 22:09:23;;;;;;;;;6.50;5.25;;;;;21.88;36.41;101330.38;5055573;27;51422;-48
2022/02/03 22:11:48;;;;;;;;;5.00;5.00;;;;;21.87;35.99;101336.06;5055136;28;52042;-45
2022/02/03 22:14:14;;;;;;;;;7.25;5.00;;;;;21.85;36.58;101333.53;5056570;28;51163;-46
2022/02/03 22:16:39;;;;;;;;;5.75;5.00;;;;;21.85;36.24;101339.06;5052751;28;51087;-46
2022/02/03 22:19:05;;;;;;;;;7.75;7.25;;;;;21.84;36.34;101333.75;5056241;28;51715;-47